TAF Text Data
IDs:
Format:
Raw Decoded Include METAR

Data at: 1816 UTC 20 May 2022

KLAX 201740Z 2018/2124 24006KT P6SM BKN020 OVC030
  FM202000 25011KT P6SM OVC030
  FM210500 27006KT P6SM OVC025
  FM211100 12008KT P6SM OVC025
  FM211500 16005KT P6SM OVC035
  FM211800 25007KT P6SM OVC040
  FM212100 26011KT P6SM BKN045


KLAS 201732Z 2018/2124 36014G24KT P6SM FEW250
  FM202300 02009KT P6SM FEW250
  FM211200 VRB06KT P6SM SKC
  FM211800 08008KT P6SM FEW250


KSAN 201740Z 2018/2124 18011KT P6SM SCT017 OVC025
  TEMPO 2020/2024 SCT025 BKN035
  FM210000 18010KT P6SM OVC015
  FM210600 18010KT P6SM OVC021
  FM212000 20011KT P6SM SCT025


KBUR 201740Z 2018/2118 16006KT P6SM BKN016 OVC023
  FM202000 18008KT P6SM BKN025
  FM202300 20009KT P6SM BKN035
  FM210300 18005KT P6SM OVC030
  FM211500 VRB03KT P6SM OVC035


KVNY 201740Z 2018/2118 15008KT P6SM OVC035
  FM211000 15005KT P6SM OVC025
  FM211500 15004KT P6SM SCT025 BKN035


KLGB 201740Z 2018/2118 14006KT P6SM BKN015 OVC030
  FM201900 18007KT P6SM SCT025 OVC035
  FM210500 VRB03KT P6SM OVC025
  FM211200 VRB03KT P6SM OVC035


KSNA 201740Z 2018/2118 19009KT 5SM BR FEW009 BKN015 OVC022
  TEMPO 2022/2024 SCT025 BKN030
  FM210200 20009KT P6SM BKN017
  FM211000 15006KT 5SM BR OVC025


KCRQ 201740Z 2018/2118 21011KT P6SM FEW009 SCT025 OVC035
  TEMPO 2020/2024 BKN025
  FM210000 22010KT P6SM OVC015
  FM210600 18007KT P6SM OVC020


KONT 201740Z 2018/2124 25010KT P6SM BKN015 OVC025
  TEMPO 2020/2024 SCT025 BKN035
  FM210000 24010G17KT P6SM SCT025 BKN030
  FM210400 25009KT P6SM BKN020
  FM212100 25011G17KT P6SM SCT025


KPSP 201740Z 2018/2118 32015G25KT P6SM SKC
  FM202030 32020G30KT P6SM SKC
  FM210800 32012G20KT P6SM SKC
  FM211000 31006KT P6SM SKC